Time;durP1;ratioP1;P1;durP2;ratioP2;P2;SDS_P1;SDS_P2;PMS_P1;PMS_P2;Temp;Humidity;BMP_temperature;BMP_pressure;BME280_temperature;BME280_humidity;BME280_pressure;Samples;Min_cycle;Max_cycle;Signal;HPM_P1;HPM_P2
2022/03/21 00:00:45;;;;;;;16.13;9.75;;;4.80;43.10;;;;;;5071311;28;20186;-63
2022/03/21 00:03:16;;;;;;;12.43;8.85;;;4.80;43.70;;;;;;5072826;28;20620;-63
2022/03/21 00:05:45;;;;;;;12.35;8.18;;;4.80;43.60;;;;;;5053759;28;20205;-63
2022/03/21 00:08:12;;;;;;;15.85;10.30;;;4.80;43.10;;;;;;5052708;28;20198;-63
2022/03/21 00:10:42;;;;;;;12.70;9.20;;;4.70;43.30;;;;;;5069726;28;20672;-63
2022/03/21 00:13:12;;;;;;;12.13;9.30;;;4.70;43.50;;;;;;5072853;28;20601;-63
2022/03/21 00:15:39;;;;;;;12.88;9.05;;;4.70;43.80;;;;;;5054873;28;20273;-63
2022/03/21 00:18:07;;;;;;;15.38;9.60;;;4.60;43.60;;;;;;5068347;28;20193;-63
2022/03/21 00:20:35;;;;;;;12.35;9.65;;;4.60;43.60;;;;;;5072588;28;20202;-63
2022/03/21 00:23:02;;;;;;;14.13;9.52;;;4.60;44.10;;;;;;5057127;28;20186;-63
2022/03/21 00:25:30;;;;;;;12.45;9.07;;;4.50;43.70;;;;;;5052495;28;20532;-63
2022/03/21 00:27:58;;;;;;;18.23;10.15;;;4.50;43.60;;;;;;5065911;28;20538;-63
2022/03/21 00:30:27;;;;;;;17.45;9.63;;;4.40;44.30;;;;;;5069922;28;20193;-63
2022/03/21 00:32:55;;;;;;;11.70;8.70;;;4.50;44.30;;;;;;5052359;28;20226;-63
2022/03/21 00:35:23;;;;;;;16.63;10.60;;;4.50;44.60;;;;;;5052348;28;20190;-67
2022/03/21 00:37:51;;;;;;;19.73;10.45;;;4.40;44.20;;;;;;5055987;28;20228;-63
2022/03/21 00:40:19;;;;;;;13.73;9.20;;;4.40;44.50;;;;;;5052039;28;20209;-63
2022/03/21 00:42:48;;;;;;;18.67;10.82;;;4.30;44.50;;;;;;5052183;28;20510;-63
2022/03/21 00:45:17;;;;;;;14.77;9.93;;;4.20;44.50;;;;;;5051446;28;20186;-63
2022/03/21 00:47:45;;;;;;;14.25;9.52;;;4.10;44.20;;;;;;5052062;28;20240;-63
2022/03/21 00:50:14;;;;;;;14.70;9.85;;;4.10;44.70;;;;;;5070483;28;20272;-63
2022/03/21 00:52:46;;;;;;;14.90;9.40;;;4.10;44.80;;;;;;5072288;28;20208;-63
2022/03/21 00:55:15;;;;;;;12.10;9.35;;;4.00;44.50;;;;;;5053483;28;20629;-63
2022/03/21 00:57:43;;;;;;;15.70;9.93;;;4.00;44.90;;;;;;5052801;28;20546;-63
2022/03/21 01:00:13;;;;;;;16.33;10.13;;;3.90;44.70;;;;;;5054750;28;20197;-63
2022/03/21 01:02:41;;;;;;;14.40;8.43;;;3.90;45.10;;;;;;5051627;28;20195;-63
2022/03/21 01:05:10;;;;;;;15.75;10.35;;;3.80;45.20;;;;;;5072074;28;20319;-63
2022/03/21 01:07:38;;;;;;;17.02;9.98;;;3.70;45.50;;;;;;5072322;28;20190;-63
2022/03/21 01:10:09;;;;;;;18.55;12.07;;;3.60;45.50;;;;;;5052418;28;20247;-63
2022/03/21 01:12:36;;;;;;;15.43;10.65;;;3.60;45.60;;;;;;5051971;28;20194;-64
2022/03/21 01:15:04;;;;;;;15.93;9.75;;;3.60;46.10;;;;;;5070552;28;20189;-63
2022/03/21 01:17:31;;;;;;;16.20;10.32;;;3.60;46.60;;;;;;5071913;28;20225;-63
2022/03/21 01:19:58;;;;;;;14.95;8.10;;;3.60;46.90;;;;;;5053996;28;20538;-63
2022/03/21 01:22:25;;;;;;;16.30;10.15;;;3.60;46.50;;;;;;5052240;28;20207;-63
2022/03/21 01:24:52;;;;;;;19.58;11.05;;;3.60;46.50;;;;;;5067780;28;20185;-63
2022/03/21 01:27:21;;;;;;;23.88;10.15;;;3.60;46.90;;;;;;5071848;28;20255;-63
2022/03/21 01:29:48;;;;;;;17.75;12.00;;;3.50;47.00;;;;;;5056267;28;20191;-63
2022/03/21 01:32:15;;;;;;;12.07;8.65;;;3.50;47.00;;;;;;5051956;28;20343;-63
2022/03/21 01:34:42;;;;;;;15.35;8.63;;;3.50;46.60;;;;;;5065075;28;20606;-63
2022/03/21 01:37:09;;;;;;;15.75;9.35;;;3.50;46.20;;;;;;5071920;28;20695;-63
2022/03/21 01:39:36;;;;;;;15.48;9.32;;;3.40;45.80;;;;;;5058685;28;20183;-63
2022/03/21 01:42:04;;;;;;;15.35;10.18;;;3.30;46.30;;;;;;5057696;28;20544;-63
2022/03/21 01:44:33;;;;;;;13.55;9.52;;;3.10;45.60;;;;;;5071727;28;20521;-63
2022/03/21 01:47:00;;;;;;;12.65;9.25;;;3.10;45.30;;;;;;5066360;28;20187;-63
2022/03/21 01:49:27;;;;;;;15.27;10.13;;;3.00;45.70;;;;;;5051533;28;20608;-63
2022/03/21 01:51:54;;;;;;;16.15;9.57;;;2.90;46.20;;;;;;5055129;28;20213;-63
2022/03/21 01:57:07;;;;;;;13.32;9.50;;;2.80;47.20;;;;;;5069004;28;20221;-63
2022/03/21 01:59:37;;;;;;;17.50;11.68;;;2.80;47.60;;;;;;5063881;28;20234;-63
2022/03/21 02:02:06;;;;;;;15.35;10.43;;;2.80;47.90;;;;;;5071064;28;20182;-63
2022/03/21 02:04:34;;;;;;;22.48;10.65;;;2.80;48.40;;;;;;5055044;28;20646;-63
2022/03/21 02:07:01;;;;;;;15.02;9.27;;;2.90;48.90;;;;;;5057377;28;20190;-63
2022/03/21 02:09:30;;;;;;;14.50;8.32;;;2.90;48.80;;;;;;5075299;28;20198;-63
2022/03/21 02:11:58;;;;;;;18.95;11.82;;;3.00;49.20;;;;;;5073174;28;20198;-63
2022/03/21 02:14:25;;;;;;;14.38;9.40;;;2.90;48.70;;;;;;5055146;28;20194;-63
2022/03/21 02:16:54;;;;;;;16.60;11.02;;;2.80;47.50;;;;;;5054682;28;20221;-63
2022/03/21 02:19:26;;;;;;;21.13;10.98;;;2.70;48.00;;;;;;5072881;28;20198;-63
2022/03/21 02:22:09;;;;;;;18.65;9.85;;;2.60;48.30;;;;;;5073921;28;20194;-64
2022/03/21 02:24:46;;;;;;;15.90;10.90;;;2.60;48.50;;;;;;5039386;28;20244;-63
2022/03/21 02:27:16;;;;;;;15.93;10.07;;;2.60;49.50;;;;;;5056550;28;20551;-63
2022/03/21 02:29:44;;;;;;;18.25;11.40;;;2.60;49.50;;;;;;5074557;28;20197;-62
2022/03/21 02:32:12;;;;;;;14.70;10.63;;;2.60;49.00;;;;;;5072620;28;20193;-64
2022/03/21 02:34:40;;;;;;;16.73;11.38;;;2.50;49.00;;;;;;5054546;28;20225;-63
2022/03/21 02:37:10;;;;;;;16.13;11.32;;;2.40;49.80;;;;;;5054159;28;20521;-64
2022/03/21 02:39:39;;;;;;;21.52;11.98;;;2.30;50.50;;;;;;5074494;28;20190;-63
2022/03/21 02:42:07;;;;;;;17.15;10.15;;;2.40;50.30;;;;;;5074442;28;20196;-63
2022/03/21 02:44:36;;;;;;;14.30;10.70;;;2.40;49.40;;;;;;5073756;28;20181;-63
2022/03/21 02:47:03;;;;;;;17.35;12.25;;;2.30;49.20;;;;;;5074461;28;20598;-63
2022/03/21 02:49:31;;;;;;;16.10;10.00;;;2.30;49.50;;;;;;5055247;28;20536;-63
2022/03/21 02:52:00;;;;;;;16.55;11.15;;;2.30;49.90;;;;;;5054221;28;20198;-62
2022/03/21 02:54:27;;;;;;;17.23;9.80;;;2.30;50.70;;;;;;5071759;28;20537;-63
2022/03/21 02:56:55;;;;;;;16.10;10.05;;;2.30;51.30;;;;;;5073893;28;20625;-63
2022/03/21 02:59:22;;;;;;;13.52;9.63;;;2.20;51.60;;;;;;5056982;28;20245;-63
2022/03/21 03:01:53;;;;;;;17.13;9.65;;;2.10;51.70;;;;;;5053929;28;20190;-63
2022/03/21 03:04:20;;;;;;;17.05;11.02;;;1.90;52.70;;;;;;5073424;28;20190;-62
2022/03/21 03:06:47;;;;;;;20.17;11.68;;;1.90;52.90;;;;;;5073816;28;20205;-62
2022/03/21 03:09:14;;;;;;;17.73;11.30;;;1.90;52.60;;;;;;5054372;28;20593;-62
2022/03/21 03:11:42;;;;;;;15.85;9.85;;;1.80;52.30;;;;;;5053988;28;20198;-63
2022/03/21 03:14:09;;;;;;;16.13;10.38;;;1.80;52.20;;;;;;5070735;28;20207;-63
2022/03/21 03:16:36;;;;;;;15.57;9.93;;;1.80;52.30;;;;;;5073934;28;20193;-63
2022/03/21 03:19:05;;;;;;;16.20;9.10;;;1.80;52.00;;;;;;5057500;28;20190;-62
2022/03/21 03:21:37;;;;;;;17.73;10.70;;;1.80;51.40;;;;;;5053594;28;20201;-63
2022/03/21 03:24:04;;;;;;;14.30;9.07;;;1.80;51.10;;;;;;5068629;28;20193;-63
2022/03/21 03:26:32;;;;;;;11.80;8.60;;;1.80;51.20;;;;;;5073540;28;20193;-63
2022/03/21 03:28:59;;;;;;;16.13;8.95;;;1.80;50.30;;;;;;5058869;28;20190;-63
2022/03/21 03:31:26;;;;;;;13.65;9.27;;;1.70;50.50;;;;;;5053306;28;20240;-63
2022/03/21 03:33:53;;;;;;;14.02;8.73;;;1.60;51.10;;;;;;5065964;28;20228;-63
2022/03/21 03:36:23;;;;;;;16.13;9.13;;;1.60;51.50;;;;;;5073416;28;20279;-62
2022/03/21 03:38:51;;;;;;;14.70;9.80;;;1.70;51.60;;;;;;5061029;28;20194;-63
2022/03/21 03:41:19;;;;;;;14.27;9.75;;;1.70;52.60;;;;;;5053176;28;20217;-63
2022/03/21 03:43:47;;;;;;;14.75;9.20;;;1.80;52.50;;;;;;5063537;28;20613;-62
2022/03/21 03:46:16;;;;;;;13.75;9.40;;;1.80;52.30;;;;;;5073256;28;20596;-63
2022/03/21 03:48:43;;;;;;;14.20;9.32;;;1.80;52.40;;;;;;5063088;28;20225;-63
2022/03/21 03:51:10;;;;;;;14.15;8.77;;;1.90;51.90;;;;;;5052937;28;20197;-64
2022/03/21 03:53:39;;;;;;;13.85;8.70;;;1.80;51.80;;;;;;5061037;28;20182;-62
2022/03/21 03:56:07;;;;;;;14.30;9.95;;;1.80;51.90;;;;;;5072872;28;20201;-62
2022/03/21 03:58:34;;;;;;;17.42;10.15;;;1.80;52.00;;;;;;5065252;28;20269;-64
2022/03/21 04:01:04;;;;;;;15.05;9.77;;;1.80;52.10;;;;;;5053059;28;20536;-63
2022/03/21 04:03:46;;;;;;;18.48;12.02;;;1.90;52.10;;;;;;5059242;28;20185;-63
2022/03/21 04:06:13;;;;;;;14.00;9.77;;;1.90;52.40;;;;;;5073220;28;20236;-63
2022/03/21 04:08:42;;;;;;;16.90;10.48;;;1.90;52.70;;;;;;5065419;28;20688;-63
2022/03/21 04:11:09;;;;;;;16.73;9.77;;;2.00;51.90;;;;;;5055963;28;20182;-63
2022/03/21 04:13:36;;;;;;;13.25;9.38;;;2.00;51.20;;;;;;5072989;28;20603;-63
2022/03/21 04:16:04;;;;;;;15.32;10.95;;;1.90;51.10;;;;;;5070947;28;20196;-62
2022/03/21 04:18:31;;;;;;;14.30;9.52;;;1.90;51.20;;;;;;5056956;28;20186;-63
2022/03/21 04:20:58;;;;;;;15.45;9.32;;;1.80;51.00;;;;;;5071997;28;20193;-63
2022/03/21 04:23:25;;;;;;;15.30;10.75;;;1.70;50.50;;;;;;5052913;28;20581;-63
2022/03/21 04:25:54;;;;;;;13.93;9.10;;;1.60;50.40;;;;;;5052853;28;20200;-63
2022/03/21 04:28:21;;;;;;;14.98;9.90;;;1.40;49.60;;;;;;5071752;28;20213;-63
2022/03/21 04:30:48;;;;;;;14.30;8.80;;;1.30;49.40;;;;;;5072700;28;20198;-62
2022/03/21 04:33:15;;;;;;;15.02;9.45;;;1.20;49.60;;;;;;5054134;28;20538;-63
2022/03/21 04:35:43;;;;;;;15.10;10.15;;;1.10;50.60;;;;;;5052899;28;20202;-62
2022/03/21 04:38:16;;;;;;;18.70;10.95;;;1.10;52.10;;;;;;5064577;28;20186;-62
2022/03/21 04:40:45;;;;;;;14.55;10.00;;;1.10;52.70;;;;;;5052504;28;20229;-63
2022/03/21 04:43:16;;;;;;;16.75;10.80;;;1.10;53.10;;;;;;5052478;28;20220;-62
2022/03/21 04:45:45;;;;;;;18.05;11.65;;;1.10;53.50;;;;;;5053443;28;20213;-64
2022/03/21 04:48:13;;;;;;;18.45;9.65;;;1.20;53.50;;;;;;5052213;28;20229;-62
2022/03/21 04:50:40;;;;;;;18.25;10.68;;;1.10;53.70;;;;;;5069900;28;20217;-62
2022/03/21 04:53:10;;;;;;;16.75;11.13;;;1.10;54.10;;;;;;5072619;28;20190;-63
2022/03/21 04:55:38;;;;;;;19.50;10.88;;;1.10;54.70;;;;;;5071943;28;20229;-62
2022/03/21 04:58:05;;;;;;;17.02;10.18;;;1.00;54.70;;;;;;5072236;28;20185;-63
2022/03/21 05:00:34;;;;;;;14.90;10.20;;;0.90;54.60;;;;;;5053274;28;20240;-63
2022/03/21 05:03:04;;;;;;;16.92;9.55;;;1.00;55.60;;;;;;5052689;28;20201;-62
2022/03/21 05:05:31;;;;;;;16.80;10.30;;;1.10;55.30;;;;;;5067574;28;20192;-63
2022/03/21 05:07:58;;;;;;;17.33;10.60;;;1.10;54.90;;;;;;5052444;28;20240;-63
2022/03/21 05:10:25;;;;;;;15.02;10.52;;;1.10;55.70;;;;;;5069034;28;20193;-62
2022/03/21 05:12:52;;;;;;;21.13;11.30;;;1.10;54.90;;;;;;5072222;28;20189;-63
2022/03/21 05:15:19;;;;;;;19.05;11.80;;;1.20;54.70;;;;;;5056248;28;20649;-63
2022/03/21 05:17:48;;;;;;;18.25;12.27;;;1.10;54.50;;;;;;5052121;28;20190;-63
2022/03/21 05:20:16;;;;;;;16.42;11.73;;;1.20;54.40;;;;;;5066103;28;20186;-63
2022/03/21 05:22:44;;;;;;;19.58;12.18;;;1.20;54.90;;;;;;5072059;28;20667;-62
2022/03/21 05:30:58;;;;;;;17.02;11.80;;;1.20;54.20;;;;;;5072455;28;20238;-63
2022/03/21 05:36:11;;;;;;;17.20;11.48;;;1.30;54.30;;;;;;5058835;28;20189;-62
2022/03/21 05:38:53;;;;;;;20.30;11.18;;;1.30;54.70;;;;;;5064871;28;20186;-63
2022/03/21 05:41:21;;;;;;;16.08;11.30;;;1.40;54.60;;;;;;5059181;28;20194;-62
2022/03/21 05:43:49;;;;;;;17.25;10.57;;;1.40;54.60;;;;;;5075727;28;20194;-63
2022/03/21 05:46:16;;;;;;;18.13;12.02;;;1.40;54.70;;;;;;5072773;28;20280;-63
2022/03/21 05:48:54;;;;;;;15.85;10.73;;;1.50;53.80;;;;;;5051119;28;20403;-62
2022/03/21 05:51:24;;;;;;;18.30;10.73;;;1.50;52.80;;;;;;5056847;28;20713;-62
2022/03/21 05:53:52;;;;;;;21.60;11.10;;;1.50;53.20;;;;;;5074702;28;20248;-63
2022/03/21 05:56:19;;;;;;;21.73;12.70;;;1.50;53.70;;;;;;5073418;28;20194;-63
2022/03/21 05:58:46;;;;;;;16.77;11.25;;;1.70;54.00;;;;;;5056348;28;20194;-64
2022/03/21 06:01:15;;;;;;;20.58;11.88;;;1.70;54.00;;;;;;5055355;28;20194;-63
2022/03/21 06:03:44;;;;;;;21.83;11.77;;;1.70;53.70;;;;;;5073540;28;20221;-63
2022/03/21 06:06:11;;;;;;;17.98;11.10;;;1.80;53.40;;;;;;5075248;28;20196;-64
2022/03/21 06:08:38;;;;;;;24.77;14.10;;;1.80;52.80;;;;;;5055201;28;20256;-63
2022/03/21 06:11:05;;;;;;;16.55;11.65;;;1.80;53.10;;;;;;5055252;28;20190;-62
2022/03/21 06:13:33;;;;;;;15.15;11.75;;;1.80;53.30;;;;;;5067514;28;20194;-64
2022/03/21 06:16:04;;;;;;;17.80;10.73;;;1.80;53.50;;;;;;5051236;28;20186;-65
2022/03/21 06:18:31;;;;;;;16.00;11.43;;;1.90;53.70;;;;;;5053164;28;20654;-63
2022/03/21 06:21:00;;;;;;;17.73;12.40;;;2.00;53.70;;;;;;5054602;28;20190;-62
2022/03/21 06:23:28;;;;;;;17.98;11.85;;;2.00;53.60;;;;;;5052837;28;20236;-63
2022/03/21 06:25:55;;;;;;;16.98;11.32;;;2.10;53.80;;;;;;5054201;28;20186;-63
2022/03/21 06:28:23;;;;;;;18.10;10.93;;;2.30;53.70;;;;;;5053430;28;20242;-63
2022/03/21 06:30:51;;;;;;;18.75;11.55;;;2.40;53.60;;;;;;5052397;28;20277;-64
2022/03/21 06:33:19;;;;;;;14.55;11.10;;;2.50;53.50;;;;;;5045532;28;20218;-63
2022/03/21 06:35:46;;;;;;;22.20;12.23;;;2.70;53.60;;;;;;5054957;28;20205;-63
2022/03/21 06:38:15;;;;;;;17.15;12.25;;;2.90;53.50;;;;;;5057169;28;20201;-63
2022/03/21 06:40:43;;;;;;;24.23;14.82;;;3.00;53.20;;;;;;5053592;28;20545;-63
2022/03/21 06:43:11;;;;;;;20.00;12.45;;;3.20;53.20;;;;;;5055184;28;20277;-63
2022/03/21 06:45:39;;;;;;;21.75;12.23;;;3.40;52.90;;;;;;5051572;28;20671;-64
2022/03/21 06:48:06;;;;;;;19.02;12.57;;;3.70;52.50;;;;;;5052276;28;20221;-64
2022/03/21 06:50:34;;;;;;;18.55;12.95;;;3.90;52.60;;;;;;5052800;28;20194;-63
2022/03/21 06:53:01;;;;;;;14.40;10.75;;;4.10;52.60;;;;;;5051002;28;20739;-64
2022/03/21 06:55:30;;;;;;;18.27;12.30;;;4.40;52.10;;;;;;5052232;28;20193;-63
2022/03/21 06:57:57;;;;;;;17.27;11.38;;;4.60;51.60;;;;;;5052687;28;20182;-63
2022/03/21 07:00:24;;;;;;;24.10;12.35;;;4.80;50.80;;;;;;5052587;28;20197;-64
2022/03/21 07:02:51;;;;;;;18.90;10.27;;;4.90;50.50;;;;;;5052676;28;20549;-63
2022/03/21 07:05:18;;;;;;;17.13;12.07;;;4.90;50.50;;;;;;5055169;28;20198;-64
2022/03/21 07:07:47;;;;;;;17.77;12.20;;;5.00;50.50;;;;;;5052505;28;20657;-64
2022/03/21 07:10:14;;;;;;;16.52;11.98;;;5.20;50.70;;;;;;5052788;28;20234;-63
2022/03/21 07:12:42;;;;;;;22.55;12.40;;;5.30;50.10;;;;;;5052843;28;20196;-63
2022/03/21 07:15:10;;;;;;;15.63;12.80;;;5.40;49.90;;;;;;5053641;28;20201;-63
2022/03/21 07:17:37;;;;;;;21.60;14.25;;;5.50;49.90;;;;;;5051404;28;20185;-63
2022/03/21 07:20:05;;;;;;;19.83;16.20;;;5.70;49.70;;;;;;5052719;28;20640;-64
2022/03/21 07:22:32;;;;;;;22.73;17.10;;;6.00;49.50;;;;;;5052357;28;20186;-63
2022/03/21 07:25:00;;;;;;;22.50;14.20;;;6.50;49.90;;;;;;5051688;28;20194;-64
2022/03/21 07:27:27;;;;;;;16.52;13.40;;;7.00;48.80;;;;;;5052994;28;20564;-63
2022/03/21 07:29:55;;;;;;;15.43;12.02;;;7.40;47.90;;;;;;5052207;28;20233;-64
2022/03/21 07:32:22;;;;;;;18.33;13.55;;;7.90;46.50;;;;;;5052404;28;20198;-63
2022/03/21 07:34:49;;;;;;;12.75;10.13;;;8.50;46.20;;;;;;5054643;28;20557;-66
2022/03/21 07:37:16;;;;;;;16.85;11.25;;;9.30;43.70;;;;;;5052171;28;20183;-65
2022/03/21 07:39:46;;;;;;;15.52;10.95;;;10.40;40.10;;;;;;5051797;28;20241;-64
2022/03/21 07:42:16;;;;;;;15.27;10.10;;;11.20;39.10;;;;;;5051712;28;20675;-64
2022/03/21 07:47:29;;;;;;;15.20;11.20;;;12.70;35.60;;;;;;5051747;28;20679;-64
2022/03/21 07:49:56;;;;;;;16.10;11.05;;;13.70;34.70;;;;;;5052073;28;20218;-64
2022/03/21 07:52:24;;;;;;;16.85;11.20;;;14.90;34.10;;;;;;5052214;28;20201;-64
2022/03/21 07:54:54;;;;;;;17.55;11.07;;;16.80;33.80;;;;;;5053509;28;20587;-64
2022/03/21 07:57:21;;;;;;;14.95;11.82;;;18.30;28.70;;;;;;5047849;28;20272;-64
2022/03/21 07:59:48;;;;;;;13.83;11.30;;;19.00;27.50;;;;;;5051784;28;20202;-64
2022/03/21 08:02:16;;;;;;;16.37;12.97;;;20.30;26.40;;;;;;5050869;28;20443;-66
2022/03/21 08:04:45;;;;;;;14.27;12.67;;;21.40;24.80;;;;;;5051324;28;20520;-65
2022/03/21 08:07:12;;;;;;;17.53;13.40;;;22.00;23.70;;;;;;5051207;28;20470;-62
2022/03/21 08:09:39;;;;;;;13.87;12.57;;;23.20;24.00;;;;;;5051402;28;20492;-63
2022/03/21 08:12:07;;;;;;;16.90;13.00;;;24.10;20.60;;;;;;5051220;28;20467;-63
2022/03/21 08:14:35;;;;;;;13.30;12.00;;;24.70;20.50;;;;;;5050862;28;20441;-63
2022/03/21 08:17:02;;;;;;;15.47;12.60;;;25.20;19.20;;;;;;5051264;28;20440;-63
2022/03/21 08:19:29;;;;;;;14.83;12.50;;;25.80;19.10;;;;;;5049607;28;20484;-63
2022/03/21 08:21:58;;;;;;;13.80;12.50;;;26.40;18.30;;;;;;5054070;28;20509;-64
2022/03/21 08:24:25;;;;;;;14.73;12.80;;;26.60;18.40;;;;;;5050901;28;20452;-63
2022/03/21 08:26:54;;;;;;;15.87;14.27;;;27.20;17.20;;;;;;5052085;28;20449;-63
2022/03/21 08:29:21;;;;;;;15.17;12.87;;;28.00;16.00;;;;;;5056198;28;20448;-63
2022/03/21 08:31:48;;;;;;;15.13;12.90;;;28.50;15.40;;;;;;5053332;28;20437;-63
2022/03/21 08:34:15;;;;;;;14.20;12.77;;;29.00;16.20;;;;;;5055883;28;20465;-63
2022/03/21 08:36:42;;;;;;;14.53;10.40;;;30.10;17.00;;;;;;5055879;28;20465;-64
2022/03/21 08:39:11;;;;;;;12.23;11.00;;;31.20;15.60;;;;;;5053993;28;20994;-64
2022/03/21 08:41:38;;;;;;;12.40;11.07;;;32.10;13.80;;;;;;5053965;28;20440;-64
2022/03/21 08:44:05;;;;;;;12.73;11.43;;;33.00;13.80;;;;;;5054555;28;20497;-64
2022/03/21 08:46:32;;;;;;;11.60;10.43;;;34.20;13.20;;;;;;5055319;28;20444;-64
2022/03/21 08:51:43;;;;;;;13.37;11.67;;;35.80;11.50;;;;;;5055512;28;20454;-64
2022/03/21 08:54:12;;;;;;;11.00;9.87;;;36.60;11.50;;;;;;5053922;28;20445;-66
2022/03/21 08:56:39;;;;;;;10.83;9.83;;;37.40;10.40;;;;;;5057200;28;20449;-64
2022/03/21 08:59:06;;;;;;;11.93;9.90;;;37.80;9.80;;;;;;5055162;28;20559;-64
2022/03/21 09:01:34;;;;;;;14.40;10.50;;;38.20;9.50;;;;;;5054177;28;20440;-64
2022/03/21 09:04:02;;;;;;;10.97;9.80;;;38.50;8.50;;;;;;5054542;28;20923;-68
2022/03/21 09:06:29;;;;;;;11.03;9.83;;;38.60;9.00;;;;;;5049695;28;20440;-64
2022/03/21 09:08:57;;;;;;;14.50;9.70;;;38.90;8.60;;;;;;5054370;28;20444;-69
2022/03/21 09:11:26;;;;;;;11.67;10.47;;;39.20;8.50;;;;;;5053167;28;20472;-64
2022/03/21 09:13:53;;;;;;;11.13;9.90;;;39.50;7.60;;;;;;5052189;28;20487;-64
2022/03/21 09:16:20;;;;;;;11.13;10.00;;;39.30;7.30;;;;;;5052221;28;20935;-64
2022/03/21 09:18:47;;;;;;;11.40;10.40;;;39.50;8.00;;;;;;5054833;28;22360;-64
2022/03/21 09:21:14;;;;;;;13.30;10.80;;;40.00;7.70;;;;;;5052921;28;20445;-64
2022/03/21 09:23:41;;;;;;;12.40;11.20;;;40.50;7.40;;;;;;5054803;28;20515;-64
2022/03/21 09:26:11;;;;;;;24.17;11.63;;;41.20;7.80;;;;;;5051563;28;20445;-66
2022/03/21 09:28:40;;;;;;;14.43;13.13;;;41.70;7.10;;;;;;5052732;28;20480;-65
2022/03/21 09:31:07;;;;;;;21.13;11.87;;;42.40;7.10;;;;;;5049100;28;20441;-64
2022/03/21 09:33:36;;;;;;;15.40;12.90;;;43.20;6.20;;;;;;5050598;28;20477;-64
2022/03/21 09:36:04;;;;;;;13.40;12.20;;;43.80;6.00;;;;;;5051033;28;20440;-65
2022/03/21 09:38:31;;;;;;;14.40;13.00;;;44.30;6.10;;;;;;5050918;28;20445;-70
2022/03/21 09:40:59;;;;;;;13.43;12.27;;;44.70;5.20;;;;;;5050586;28;20440;-64
2022/03/21 09:43:27;;;;;;;12.50;11.30;;;44.80;4.50;;;;;;5048580;28;21838;-64
2022/03/21 09:45:58;;;;;;;12.07;10.90;;;44.80;4.90;;;;;;5049566;28;20445;-64
2022/03/21 09:48:27;;;;;;;12.30;11.20;;;45.20;4.60;;;;;;5049542;28;20448;-64
2022/03/21 09:50:56;;;;;;;12.63;11.50;;;45.60;4.20;;;;;;5052315;28;21020;-64
2022/03/21 09:53:24;;;;;;;12.30;11.30;;;45.70;4.30;;;;;;5051923;28;20471;-65
2022/03/21 09:55:51;;;;;;;12.30;11.07;;;45.90;4.10;;;;;;5051252;28;20443;-64
2022/03/21 09:58:20;;;;;;;13.00;11.90;;;46.20;3.90;;;;;;5051599;28;20429;-65
2022/03/21 10:00:49;;;;;;;13.63;12.40;;;46.50;4.30;;;;;;5054395;28;20840;-65
2022/03/21 10:03:18;;;;;;;12.40;11.20;;;46.90;4.10;;;;;;5053101;28;20467;-64
2022/03/21 10:05:49;;;;;;;11.73;10.83;;;47.10;3.80;;;;;;5059785;28;20444;-66
2022/03/21 10:08:21;;;;;;;12.33;11.23;;;47.40;3.50;;;;;;5055036;28;20440;-64
2022/03/21 10:10:57;;;;;;;11.37;10.37;;;47.60;3.50;;;;;;5055146;28;20480;-64
2022/03/21 10:13:26;;;;;;;13.20;11.93;;;47.50;3.90;;;;;;5050170;28;20803;-64
2022/03/21 10:16:08;;;;;;;12.93;11.93;;;47.60;3.50;;;;;;5058143;28;21006;-65
2022/03/21 10:18:37;;;;;;;11.20;10.20;;;47.70;3.00;;;;;;5052083;28;20508;-64
2022/03/21 10:21:12;;;;;;;11.67;10.57;;;48.10;3.60;;;;;;5055429;28;20448;-64
2022/03/21 10:23:39;;;;;;;12.40;11.10;;;48.40;3.10;;;;;;5061122;28;20439;-66
2022/03/21 10:26:25;;;;;;;11.07;10.20;;;48.40;3.00;;;;;;5051924;28;20447;-65
2022/03/21 10:28:54;;;;;;;11.40;10.40;;;48.10;3.10;;;;;;5055212;28;20511;-65
2022/03/21 10:31:38;;;;;;;12.00;10.80;;;48.00;3.10;;;;;;5060780;28;20444;-64
2022/03/21 10:34:11;;;;;;;12.20;11.20;;;48.20;3.40;;;;;;5054520;28;20479;-64
2022/03/21 10:36:58;;;;;;;11.77;10.70;;;48.40;3.20;;;;;;5056221;28;20453;-64
2022/03/21 10:39:26;;;;;;;11.20;10.20;;;48.20;3.00;;;;;;5055082;28;20451;-65
2022/03/21 10:41:57;;;;;;;12.20;11.00;;;48.00;3.30;;;;;;5056025;28;20448;-64
2022/03/21 10:44:24;;;;;;;12.87;11.77;;;48.40;3.20;;;;;;5056890;28;20441;-65
2022/03/21 10:46:53;;;;;;;13.67;12.57;;;48.80;2.60;;;;;;5060391;28;20443;-66
2022/03/21 10:49:30;;;;;;;12.27;11.27;;;49.00;2.90;;;;;;5056262;28;20512;-64
2022/03/21 10:51:58;;;;;;;11.47;10.53;;;49.30;2.40;;;;;;5055171;28;20439;-65
2022/03/21 10:54:39;;;;;;;11.30;10.40;;;49.40;2.20;;;;;;5057055;28;20903;-64
2022/03/21 10:57:08;;;;;;;13.77;12.37;;;49.30;2.60;;;;;;5054514;28;20441;-67
2022/03/21 10:59:35;;;;;;;12.07;10.97;;;49.30;2.50;;;;;;5057888;28;20536;-65
2022/03/21 11:02:14;;;;;;;12.73;11.73;;;49.60;2.60;;;;;;5058396;28;20445;-64
2022/03/21 11:04:45;;;;;;;11.90;11.00;;;50.10;2.50;;;;;;5055304;28;20919;-64
2022/03/21 11:07:12;;;;;;;11.53;10.57;;;50.40;2.50;;;;;;5059755;28;20433;-65
2022/03/21 11:09:41;;;;;;;11.90;10.90;;;50.60;2.40;;;;;;5055781;28;20496;-68
2022/03/21 11:12:09;;;;;;;12.40;11.30;;;50.80;2.10;;;;;;5055386;28;20444;-65
2022/03/21 11:14:38;;;;;;;13.00;11.83;;;50.90;2.30;;;;;;5055954;28;20439;-66
2022/03/21 11:17:06;;;;;;;12.10;11.00;;;51.10;2.40;;;;;;5051542;28;20969;-66
2022/03/21 11:19:34;;;;;;;11.93;11.03;;;51.30;2.10;;;;;;5052504;28;20459;-67
2022/03/21 11:22:04;;;;;;;13.27;12.17;;;51.30;2.00;;;;;;5052692;28;20429;-64
2022/03/21 11:24:34;;;;;;;12.63;11.60;;;51.30;1.80;;;;;;5051661;28;20433;-66
2022/03/21 11:27:15;;;;;;;12.30;11.30;;;51.30;2.00;;;;;;5052156;28;20970;-65
2022/03/21 11:29:59;;;;;;;11.77;10.77;;;51.40;1.70;;;;;;5048930;28;20480;-64
2022/03/21 11:32:37;;;;;;;12.63;10.47;;;51.40;2.00;;;;;;5048602;28;20439;-64
2022/03/21 11:35:12;;;;;;;11.93;10.90;;;51.50;2.50;;;;;;5052363;28;20765;-66
2022/03/21 11:37:42;;;;;;;12.80;11.80;;;51.10;1.80;;;;;;5051990;28;20442;-64
2022/03/21 11:40:39;;;;;;;12.20;11.20;;;50.70;2.40;;;;;;5053665;28;20492;-64
2022/03/21 11:43:29;;;;;;;12.50;11.40;;;50.40;2.00;;;;;;5010239;28;20462;-64
2022/03/21 11:45:57;;;;;;;14.27;12.97;;;50.60;2.00;;;;;;5047372;28;20524;-64
2022/03/21 11:48:36;;;;;;;14.93;13.57;;;50.70;2.00;;;;;;5051296;28;20444;-65
2022/03/21 11:51:25;;;;;;;12.83;11.57;;;50.70;1.90;;;;;;5049946;28;20508;-64
2022/03/21 11:53:55;;;;;;;12.37;11.37;;;50.70;2.10;;;;;;5046174;28;20898;-64
2022/03/21 11:56:54;;;;;;;13.37;12.10;;;50.60;2.10;;;;;;5051987;28;20868;-64
2022/03/21 11:59:52;;;;;;;12.13;11.13;;;50.70;1.70;;;;;;5051318;28;20444;-64
2022/03/21 12:02:58;;;;;;;11.50;10.60;;;50.70;2.20;;;;;;5047712;28;20425;-64
2022/03/21 12:05:46;;;;;;;12.30;11.30;;;50.70;1.80;;;;;;5045937;28;20440;-65
2022/03/21 12:08:48;;;;;;;14.00;11.57;;;50.70;1.70;;;;;;5049229;28;20453;-64
2022/03/21 12:11:49;;;;;;;13.23;11.93;;;50.50;1.60;;;;;;5050423;28;20902;-64
2022/03/21 12:14:29;;;;;;;12.30;11.20;;;50.40;1.70;;;;;;5051829;28;20433;-66
2022/03/21 12:17:36;;;;;;;13.33;12.10;;;50.40;1.80;;;;;;5049750;28;20823;-64
2022/03/21 12:20:11;;;;;;;12.00;10.50;;;50.20;1.80;;;;;;5048632;28;20440;-65
2022/03/21 12:22:47;;;;;;;12.90;11.70;;;50.00;1.50;;;;;;5052058;28;20551;-65
2022/03/21 12:25:16;;;;;;;15.43;12.20;;;49.60;1.60;;;;;;5051988;28;20524;-66
2022/03/21 12:27:45;;;;;;;12.97;11.70;;;49.30;2.00;;;;;;5050805;28;20483;-65
2022/03/21 12:30:39;;;;;;;14.27;12.97;;;49.10;1.90;;;;;;5058047;28;20546;-64
2022/03/21 12:33:28;;;;;;;13.20;11.90;;;48.70;2.00;;;;;;5050895;28;20781;-64
2022/03/21 12:36:05;;;;;;;11.50;10.40;;;48.40;2.40;;;;;;5050784;28;20476;-64
2022/03/21 12:38:34;;;;;;;12.33;10.90;;;48.30;2.30;;;;;;5050506;28;20526;-64
2022/03/21 12:41:03;;;;;;;11.90;10.77;;;48.00;1.90;;;;;;5050683;28;20441;-64
2022/03/21 12:43:32;;;;;;;12.90;11.60;;;47.10;1.80;;;;;;5051260;28;20440;-64
2022/03/21 12:46:12;;;;;;;12.30;11.20;;;46.80;2.30;;;;;;5050826;28;20437;-64
2022/03/21 12:48:41;;;;;;;12.83;11.70;;;46.60;2.40;;;;;;5049199;28;20472;-64
2022/03/21 12:51:09;;;;;;;14.60;12.43;;;46.20;2.40;;;;;;5050436;28;21049;-66
2022/03/21 12:53:39;;;;;;;13.37;12.00;;;45.50;2.50;;;;;;5048649;28;20433;-64
2022/03/21 12:56:28;;;;;;;13.40;12.17;;;44.90;2.80;;;;;;5050822;28;20443;-66
2022/03/21 12:59:01;;;;;;;14.10;11.93;;;43.70;2.60;;;;;;5047843;28;20440;-64
2022/03/21 13:01:30;;;;;;;11.17;10.13;;;42.80;3.10;;;;;;5048796;28;20448;-65
2022/03/21 13:10:32;;;;;;;14.60;12.00;;;41.80;3.50;;;;;;5046841;28;20963;-64
2022/03/21 13:12:33;;;;;;;12.97;11.57;;;38.80;4.80;;;;;;5051407;28;20448;-64
2022/03/21 13:15:08;;;;;;;14.27;12.30;;;37.70;4.60;;;;;;5050522;28;20445;-64